Airfield :
LOGIN :

Register | Disclaimer

   EN    FR    IT 

 










Legend :    VFR   Marginal VFR   IFR   Intensive IFR   Very Intensive IFR
Visi :
Ceiling :
>= 8 km
>= 3000ft
5 to 8 km
1000 to 3000 ft
1500m to 5 km
500 to 1000 ft
800 to 1500m
200 to 500 ft
< 800m
< 200 ft
Symbols :   Thunderstorms  Fog  Heavy snow  Heavy precipitations  Wind > 20 kt
SIGMETs :     Misc.  Thunderstorms  Icing  Turbulence  Mountain Waves  Volcanic Ashes







- Airport Elevation : 333 ft


LIPL - Ghedi Brescia (Mil)

CURRENT METAR :
  • 222255Z /////KT 0600 R31/0800D FG BKN002 06/06 Q1018 RMK BKN VIS MIN 0600 WIND THR31 02003KT RED

EXPIRED METARs :
  • 222155Z /////KT 1500 BR BKN002 07/06 Q1018 RMK BKN VIS MIN 1500 WIND THR31 00000KT AMB
  • 222055Z /////KT 1500 BR BKN002 07/06 Q1018 RMK BKN VIS MIN 1500 WIND THR31 VRB01KT AMB

TAF TAF LIPL
Valid from the 23 at 00:00 until the 23 at 09:00 UTC


222300Z 2300/2309 VRB03KT 1500 BR BKN004
TEMPO 2300/2306 0600 FG OVC003
No reported NOTAMs for that airfield.



MET'MAP, your aeronautical weather chart ! - Copyright ORBIFLY December 2007 - Disclaimer

ORBIFLY MET'MAP TEAM :

Programming & Development : Alexandra Zaïnal
Concept & Development : Baudouin d'Aumeries
Co-Development & Prog : Marc-Olivier Méhu
Technical & hardware support : Manuel Goepfert

Contact : metmap@orbifly.com




SOURCES & CREDITS :

   NOAA